Last 30 Days

Squaw-Red Dog 6200'

Daily Data | America/Los_Angeles
as of 5/24/19 2:19 PM PDT
Date Daily Max Temp (°F) Max Temp Time Daily Min Temp (°F) Min Temp Time Daily Rain (In) New Snow (in) SnowDepth (in) Wind Spd (mph) Daily Max Wind (mph) Max Wind Time Max Wind Dir (°) Max RH (%) Min RH (%) Wet Bulb (°F) WetB Hrs <28F (hrs) Bat Volt Min Day (V)
5/23/19 54.4 1449 34.4 2354 0.00 0.4 2 3.1 21.8 1302 SE | 141 100 56 40.4 0.0 12.32
5/22/19 49.3 1501 30.5 0325 0.00 0.4 1 2.4 14.1 1836 SW | 219 100 57 36.4 0.0 12.42
5/21/19 38.6 1723 30.6 0545 0.00 0.6 - 6.4 24.5 0040 NE | 40 100 67 32.6 0.0 12.41
5/20/19 43.0 0937 24.3 0606 0.00 0.4 2 5.8 24.0 1404 NNW | 345 98 59 32.4 19.5 12.48
5/19/19 40.7 1159 28.1 2345 0.00 1.6 3 3.3 17.3 1721 NNW | 346 100 55 32.1 2.6 12.42
5/18/19 45.6 1117 27.9 0346 0.00 0.4 2 2.5 15.2 1417 N | 1 100 48 34.0 0.4 12.45
5/17/19 43.5 1807 31.0 0255 0.01 0.4 2 5.6 21.2 0112 NW | 319 97 64 34.2 0.0 12.45
5/16/19 40.4 0200 30.7 0714 0.00 - - 7.2 27.4 1206 NNW | 347 100 74 33.2 0.0 12.46
5/15/19 48.6 0314 38.8 2344 0.12 0.2 2 6.4 26.6 1515 NNE | 24 91 54 40.8 0.0 12.43
5/14/19 57.5 1533 38.5 0500 0.00 0.2 3 4.5 19.7 1434 N | 10 79 30 41.4 0.0 12.37
5/13/19 60.8 1249 35.9 0610 0.00 0.2 4 4.8 20.5 1457 N | 350 95 28 41.9 0.0 12.38
5/12/19 67.3 1230 34.4 0548 0.00 0.2 7 3.0 17.6 1611 N | 0 94 23 43.8 0.0 12.36
5/11/19 67.1 1739 29.4 0551 0.00 0.0 10 2.2 13.4 1812 WNW | 303 94 21 40.5 0.0 12.39
5/10/19 62.7 1648 36.1 0001 0.00 - 13 4.5 19.6 1247 SSW | 208 76 16 39.1 0.0 12.42
5/9/19 62.6 1255 32.4 0605 0.00 - 14 2.6 18.9 1704 S | 176 99 29 40.4 0.0 12.43
5/8/19 65.7 1437 33.9 0520 0.00 - 16 1.5 8.2 1420 WNW | 286 100 32 42.3 0.0 12.43
5/7/19 60.8 1232 30.9 0612 0.00 - 19 3.1 15.9 1805 NNW | 337 100 28 41.8 0.0 12.44
5/6/19 61.9 1253 34.2 0556 0.07 - 22 2.5 17.9 1639 N | 3 99 41 41.9 0.0 12.44
5/5/19 66.7 1350 30.9 0603 0.00 - 24 3.2 18.2 1826 NW | 325 97 25 40.8 0.0 12.47
5/4/19 61.9 1318 30.6 0557 0.00 - 26 2.5 11.8 1704 N | 349 100 16 39.2 0.0 12.44
5/3/19 58.9 1421 29.7 0425 0.00 - 27 2.3 9.6 1327 NNW | 334 98 25 38.9 0.0 12.41
5/2/19 58.4 1411 26.5 0605 0.00 - 29 2.5 12.8 1753 NNW | 344 98 19 35.8 10.0 12.42
5/1/19 52.1 1215 24.2 0615 0.00 - 31 3.1 15.2 1844 NNW | 340 99 25 33.7 16.9 12.43
4/30/19 45.8 1507 29.8 2356 0.00 - 29 7.9 36.3 0839 WNW | 296 95 57 37.0 0.0 12.41
4/29/19 56.1 1215 29.2 0619 0.00 - 33 4.9 20.7 1702 NNW | 347 99 24 39.2 0.0 12.46
4/28/19 60.4 1501 28.1 0617 0.00 - 35 2.5 11.6 1408 NNW | 336 96 13 38.0 1.8 12.47
4/27/19 62.4 1447 31.3 0633 0.00 - 36 3.5 21.3 1214 NNW | 328 98 26 39.7 0.0 12.43
4/26/19 62.7 1449 32.0 0550 0.00 - 38 3.1 16.1 1628 WNW | 300 98 29 40.7 0.0 12.46
4/25/19 65.4 1454 33.3 0630 0.00 - 40 2.2 13.8 1607 NNW | 327 100 34 42.7 0.0 12.47
4/24/19 65.6 1341 32.6 0544 0.00 - 42 2.2 10.0 1610 NNW | 342 100 34 43.3 0.0 12.41
Max 67.3 - 38.8 - 0.12 1.6 42 7.9 36.3 - - 100 74 43.8 19.5 12.48
Avg - - - - - 0.4 18 3.7 - - - - - 38.6 - -
Min 38.6 - 24.2 - 0.00 0.0 1 1.5 8.2 - - 76 13 32.1 0.0 12.32